Silver Cloud — C6MQ5 — position and weather

sailwx.info

Track history (hours):
 
Tides and Currents Weather Stations Pressure Air Temp Water Temp Dewpoint Dewpoint Depression Visibility Wind Speed Wind Dir Waves Ship Positions

Silver Cloud

Operator: V Ships Leisure SAM

Last reported at 2018-Jul-27 21:17 UTC. Time now 2018-Aug-15 12:37 UTC.
Position N 70°41' E 020°45'.
Warning: this ship's position is 18 days out of date.

Length 156 m; draft 5.7 m.

Type: Passenger vessel. MMSI: 309027000.

Date/timePositionNaut miles runAvg speedWind from/ knotsBaromVisibWave heightAir tempDewpointWater temp
2018-Jul-27 21:17N 70°41' E 020°45'516.6
2018-Jul-27 21:00N 70°36' E 020°46'816.0
2018-Jul-27 20:29N 70°28' E 020°43'816.2
2018-Jul-27 20:00N 70°21' E 020°35'816.3
2018-Jul-27 19:29N 70°13' E 020°24'816.1
2018-Jul-27 19:00N 70°06' E 020°13'713.0
2018-Jul-27 18:30N 70°01' E 020°03'815.8
2018-Jul-27 18:00N 69°54' E 019°51'815.2
2018-Jul-27 17:30N 69°49' E 019°33'816.0
2018-Jul-27 17:00N 69°47' E 019°12'713.6
2018-Jul-27 16:30N 69°41' E 019°01'0 0.9
2018-Jul-27 16:00N 69°41' E 018°60'0 0.0
2018-Jul-27 15:30N 69°41' E 018°60'0 0.0
2018-Jul-27 15:00N 69°41' E 018°60'0 0.0
2018-Jul-27 14:30N 69°41' E 018°60'0 0.0
2018-Jul-27 14:00N 69°41' E 018°60'0 0.0
2018-Jul-27 13:30N 69°41' E 018°60'0 0.0
2018-Jul-27 13:00N 69°41' E 018°60'0 0.0
2018-Jul-27 12:30N 69°41' E 018°60'0 0.0
2018-Jul-27 12:00N 69°41' E 018°60'0 0.0
2018-Jul-27 11:30N 69°41' E 018°60'0 0.0
2018-Jul-27 11:00N 69°41' E 018°60'0 0.0
2018-Jul-27 10:30N 69°41' E 018°60'0 0.0
2018-Jul-27 10:00N 69°41' E 018°60'0 0.0
2018-Jul-27 09:30N 69°41' E 018°60'0 0.0
2018-Jul-27 09:00N 69°41' E 018°60'0 0.0
2018-Jul-27 08:30N 69°41' E 018°60'0 0.0
2018-Jul-27 08:00N 69°41' E 018°60'0 0.0
2018-Jul-27 07:30N 69°41' E 018°60'0 0.0
2018-Jul-27 07:00N 69°41' E 018°60'0 0.0
2018-Jul-27 06:30N 69°41' E 018°60'0 0.0
2018-Jul-27 06:00N 69°41' E 018°60'0 0.0
2018-Jul-27 05:30N 69°41' E 018°60'0 0.0
2018-Jul-27 05:00N 69°41' E 018°60'0 0.0
2018-Jul-27 04:30N 69°41' E 018°60'0 0.0
2018-Jul-27 04:00N 69°41' E 018°60'0 0.0
2018-Jul-27 03:30N 69°41' E 018°60'0 0.0
2018-Jul-27 03:00N 69°41' E 018°60'0 0.0
2018-Jul-27 02:30N 69°41' E 018°60'0 0.0
2018-Jul-27 02:00N 69°41' E 018°60'0 0.0
2018-Jul-27 01:30N 69°41' E 018°60'0 0.0
2018-Jul-27 01:00N 69°41' E 018°60'0 0.0
2018-Jul-27 00:30N 69°41' E 018°60'0 0.0
2018-Jul-27 00:00N 69°41' E 018°60'0 0.0
2018-Jul-26 23:30N 69°41' E 018°60'0 0.0
2018-Jul-26 23:00N 69°41' E 018°60'0 0.0
2018-Jul-26 22:30N 69°41' E 018°60'0 0.0
2018-Jul-26 22:00N 69°41' E 018°60'0 0.0
2018-Jul-26 21:30N 69°41' E 018°60'0 0.0
2018-Jul-26 21:00N 69°41' E 018°60'0 0.0
2018-Jul-26 20:30N 69°41' E 018°60'0 0.0
2018-Jul-26 20:00N 69°41' E 018°60'0 0.0
2018-Jul-26 19:30N 69°41' E 018°60'0 0.0
2018-Jul-26 19:00N 69°41' E 018°60'0 0.0
2018-Jul-26 18:30N 69°41' E 018°60'0 0.0
2018-Jul-26 18:00N 69°41' E 018°60'0 0.7
2018-Jul-26 17:29N 69°40' E 019°00'5 9.8
2018-Jul-26 17:00N 69°45' E 019°04'612.7
2018-Jul-26 16:30N 69°48' E 019°20'612.9
2018-Jul-26 16:00N 69°50' E 019°38'712.6
2018-Jul-26 15:29N 69°53' E 019°54'613.1
2018-Jul-26 15:00N 69°58' E 020°07'510.5
2018-Jul-26 14:30N 69°58' E 020°22'712.6
2018-Jul-26 13:58N 69°52' E 020°26'27 3.2
2018-Jul-26 05:32N 69°25' E 020°13'1816.2
2018-Jul-26 04:24N 69°43' E 020°25'716.6
2018-Jul-26 04:00N 69°50' E 020°25'816.0
2018-Jul-26 03:30N 69°58' E 020°23'816.1
2018-Jul-26 03:00N 70°05' E 020°14'5 8.9
2018-Jul-26 02:30N 70°09' E 020°18'5 9.3
2018-Jul-26 02:00N 70°13' E 020°24'611.8
2018-Jul-26 01:30N 70°19' E 020°33'815.9
2018-Jul-26 01:00N 70°26' E 020°44'816.0
2018-Jul-26 00:30N 70°33' E 020°56'816.0
2018-Jul-26 00:00N 70°40' E 021°07'815.2
2018-Jul-25 23:30N 70°44' E 021°27'815.3
2018-Jul-25 23:00N 70°47' E 021°47'815.4
2018-Jul-25 22:29N 70°51' E 022°08'815.6
2018-Jul-25 22:00N 70°55' E 022°29'815.6
2018-Jul-25 21:29N 70°59' E 022°50'815.6
2018-Jul-25 20:59N 71°03' E 023°11'715.4
2018-Jul-25 20:30N 71°06' E 023°31'815.1
2018-Jul-25 20:00N 71°10' E 023°51'815.1
2018-Jul-25 19:30N 71°12' E 024°14'815.2
2018-Jul-25 19:00N 71°13' E 024°38'714.8
2018-Jul-25 18:30N 71°13' E 025°01'814.8
2018-Jul-25 17:59N 71°11' E 025°23'3 5.3
2018-Jul-25 17:30N 71°08' E 025°26'0 0.3
2018-Jul-25 16:59N 71°08' E 025°25'0 0.0
2018-Jul-25 16:29N 71°08' E 025°25'0 0.0
2018-Jul-25 15:59N 71°08' E 025°25'0 0.0
2018-Jul-25 15:30N 71°08' E 025°25'0 0.0
2018-Jul-25 15:00N 71°08' E 025°25'0 0.0
2018-Jul-25 14:29N 71°08' E 025°25'0 0.0
2018-Jul-25 14:00N 71°08' E 025°25'0 0.0
2018-Jul-25 13:30N 71°08' E 025°25'0 0.0
2018-Jul-25 13:00N 71°08' E 025°25'0 0.0
2018-Jul-25 12:30N 71°08' E 025°25'3 6.3
2018-Jul-25 12:00N 71°11' E 025°31'713.2
2018-Jul-25 11:30N 71°10' E 025°51'3 6.2
2018-Jul-25 10:56N 71°07' E 025°51'0 0.1
2018-Jul-25 10:29N 71°07' E 025°51'0 0.1
2018-Jul-25 09:59N 71°07' E 025°51'0 0.1
2018-Jul-25 09:29N 71°07' E 025°51'0 0.1
2018-Jul-25 08:59N 71°07' E 025°51'0 0.0
2018-Jul-25 08:29N 71°07' E 025°51'0 0.1
2018-Jul-25 07:59N 71°07' E 025°51'0 0.1
2018-Jul-25 07:29N 71°07' E 025°51'0 0.1
2018-Jul-25 06:59N 71°07' E 025°51'0 0.0
2018-Jul-25 06:29N 71°07' E 025°51'0 0.0
2018-Jul-25 05:56N 71°07' E 025°51'0 0.1
2018-Jul-25 05:29N 71°07' E 025°51'1 2.3
2018-Jul-25 05:00N 71°08' E 025°53'4 7.5
2018-Jul-25 04:29N 71°08' E 026°05'612.3
2018-Jul-25 04:00N 71°03' E 026°15'510.8
2018-Jul-25 03:30N 70°58' E 026°16'4 8.3
2018-Jul-25 03:00N 71°01' E 026°25'510.0
2018-Jul-25 02:30N 71°06' E 026°19'714.4
2018-Jul-25 01:59N 71°12' E 026°07'816.5
2018-Jul-25 01:29N 71°19' E 025°53'816.6
2018-Jul-25 00:59N 71°26' E 025°38'816.3
2018-Jul-25 00:30N 71°33' E 025°25'  
Track history (hours):
 
Tides and Currents Weather Stations Pressure Air Temp Water Temp Dewpoint Dewpoint Depression Visibility Wind Speed Wind Dir Waves Ship Positions

Silver Cloud

Operator: V Ships Leisure SAM

Last reported at 2018-Jul-27 21:17 UTC. Time now 2018-Aug-15 12:37 UTC.
Position N 70°41' E 020°45'.
Warning: this ship's position is 18 days out of date.

Length 156 m; draft 5.7 m.

Type: Passenger vessel. MMSI: 309027000.

Date/timePositionNaut miles runAvg speedWind from/ knotsBaromVisibWave heightAir tempDewpointWater temp
2018-Jul-27 21:17N 70°41' E 020°45'516.6
2018-Jul-27 21:00N 70°36' E 020°46'816.0
2018-Jul-27 20:29N 70°28' E 020°43'816.2
2018-Jul-27 20:00N 70°21' E 020°35'816.3
2018-Jul-27 19:29N 70°13' E 020°24'816.1
2018-Jul-27 19:00N 70°06' E 020°13'713.0
2018-Jul-27 18:30N 70°01' E 020°03'815.8
2018-Jul-27 18:00N 69°54' E 019°51'815.2
2018-Jul-27 17:30N 69°49' E 019°33'816.0
2018-Jul-27 17:00N 69°47' E 019°12'713.6
2018-Jul-27 16:30N 69°41' E 019°01'0 0.9
2018-Jul-27 16:00N 69°41' E 018°60'0 0.0
2018-Jul-27 15:30N 69°41' E 018°60'0 0.0
2018-Jul-27 15:00N 69°41' E 018°60'0 0.0
2018-Jul-27 14:30N 69°41' E 018°60'0 0.0
2018-Jul-27 14:00N 69°41' E 018°60'0 0.0
2018-Jul-27 13:30N 69°41' E 018°60'0 0.0
2018-Jul-27 13:00N 69°41' E 018°60'0 0.0
2018-Jul-27 12:30N 69°41' E 018°60'0 0.0
2018-Jul-27 12:00N 69°41' E 018°60'0 0.0
2018-Jul-27 11:30N 69°41' E 018°60'0 0.0
2018-Jul-27 11:00N 69°41' E 018°60'0 0.0
2018-Jul-27 10:30N 69°41' E 018°60'0 0.0
2018-Jul-27 10:00N 69°41' E 018°60'0 0.0
2018-Jul-27 09:30N 69°41' E 018°60'0 0.0
2018-Jul-27 09:00N 69°41' E 018°60'0 0.0
2018-Jul-27 08:30N 69°41' E 018°60'0 0.0
2018-Jul-27 08:00N 69°41' E 018°60'0 0.0
2018-Jul-27 07:30N 69°41' E 018°60'0 0.0
2018-Jul-27 07:00N 69°41' E 018°60'0 0.0
2018-Jul-27 06:30N 69°41' E 018°60'0 0.0
2018-Jul-27 06:00N 69°41' E 018°60'0 0.0
2018-Jul-27 05:30N 69°41' E 018°60'0 0.0
2018-Jul-27 05:00N 69°41' E 018°60'0 0.0
2018-Jul-27 04:30N 69°41' E 018°60'0 0.0
2018-Jul-27 04:00N 69°41' E 018°60'0 0.0
2018-Jul-27 03:30N 69°41' E 018°60'0 0.0
2018-Jul-27 03:00N 69°41' E 018°60'0 0.0
2018-Jul-27 02:30N 69°41' E 018°60'0 0.0
2018-Jul-27 02:00N 69°41' E 018°60'0 0.0
2018-Jul-27 01:30N 69°41' E 018°60'0 0.0
2018-Jul-27 01:00N 69°41' E 018°60'0 0.0
2018-Jul-27 00:30N 69°41' E 018°60'0 0.0
2018-Jul-27 00:00N 69°41' E 018°60'0 0.0
2018-Jul-26 23:30N 69°41' E 018°60'0 0.0
2018-Jul-26 23:00N 69°41' E 018°60'0 0.0
2018-Jul-26 22:30N 69°41' E 018°60'0 0.0
2018-Jul-26 22:00N 69°41' E 018°60'0 0.0
2018-Jul-26 21:30N 69°41' E 018°60'0 0.0
2018-Jul-26 21:00N 69°41' E 018°60'0 0.0
2018-Jul-26 20:30N 69°41' E 018°60'0 0.0
2018-Jul-26 20:00N 69°41' E 018°60'0 0.0
2018-Jul-26 19:30N 69°41' E 018°60'0 0.0
2018-Jul-26 19:00N 69°41' E 018°60'0 0.0
2018-Jul-26 18:30N 69°41' E 018°60'0 0.0
2018-Jul-26 18:00N 69°41' E 018°60'0 0.7
2018-Jul-26 17:29N 69°40' E 019°00'5 9.8
2018-Jul-26 17:00N 69°45' E 019°04'612.7
2018-Jul-26 16:30N 69°48' E 019°20'612.9
2018-Jul-26 16:00N 69°50' E 019°38'712.6
2018-Jul-26 15:29N 69°53' E 019°54'613.1
2018-Jul-26 15:00N 69°58' E 020°07'510.5
2018-Jul-26 14:30N 69°58' E 020°22'712.6
2018-Jul-26 13:58N 69°52' E 020°26'27 3.2
2018-Jul-26 05:32N 69°25' E 020°13'1816.2
2018-Jul-26 04:24N 69°43' E 020°25'716.6
2018-Jul-26 04:00N 69°50' E 020°25'816.0
2018-Jul-26 03:30N 69°58' E 020°23'816.1
2018-Jul-26 03:00N 70°05' E 020°14'5 8.9
2018-Jul-26 02:30N 70°09' E 020°18'5 9.3
2018-Jul-26 02:00N 70°13' E 020°24'611.8
2018-Jul-26 01:30N 70°19' E 020°33'815.9
2018-Jul-26 01:00N 70°26' E 020°44'816.0
2018-Jul-26 00:30N 70°33' E 020°56'816.0
2018-Jul-26 00:00N 70°40' E 021°07'815.2
2018-Jul-25 23:30N 70°44' E 021°27'815.3
2018-Jul-25 23:00N 70°47' E 021°47'815.4
2018-Jul-25 22:29N 70°51' E 022°08'815.6
2018-Jul-25 22:00N 70°55' E 022°29'815.6
2018-Jul-25 21:29N 70°59' E 022°50'815.6
2018-Jul-25 20:59N 71°03' E 023°11'715.4
2018-Jul-25 20:30N 71°06' E 023°31'815.1
2018-Jul-25 20:00N 71°10' E 023°51'815.1
2018-Jul-25 19:30N 71°12' E 024°14'815.2
2018-Jul-25 19:00N 71°13' E 024°38'714.8
2018-Jul-25 18:30N 71°13' E 025°01'814.8
2018-Jul-25 17:59N 71°11' E 025°23'3 5.3
2018-Jul-25 17:30N 71°08' E 025°26'0 0.3
2018-Jul-25 16:59N 71°08' E 025°25'0 0.0
2018-Jul-25 16:29N 71°08' E 025°25'0 0.0
2018-Jul-25 15:59N 71°08' E 025°25'0 0.0
2018-Jul-25 15:30N 71°08' E 025°25'0 0.0
2018-Jul-25 15:00N 71°08' E 025°25'0 0.0
2018-Jul-25 14:29N 71°08' E 025°25'0 0.0
2018-Jul-25 14:00N 71°08' E 025°25'0 0.0
2018-Jul-25 13:30N 71°08' E 025°25'0 0.0
2018-Jul-25 13:00N 71°08' E 025°25'0 0.0
2018-Jul-25 12:30N 71°08' E 025°25'3 6.3
2018-Jul-25 12:00N 71°11' E 025°31'713.2
2018-Jul-25 11:30N 71°10' E 025°51'3 6.2
2018-Jul-25 10:56N 71°07' E 025°51'0 0.1
2018-Jul-25 10:29N 71°07' E 025°51'0 0.1
2018-Jul-25 09:59N 71°07' E 025°51'0 0.1
2018-Jul-25 09:29N 71°07' E 025°51'0 0.1
2018-Jul-25 08:59N 71°07' E 025°51'0 0.0
2018-Jul-25 08:29N 71°07' E 025°51'0 0.1
2018-Jul-25 07:59N 71°07' E 025°51'0 0.1
2018-Jul-25 07:29N 71°07' E 025°51'0 0.1
2018-Jul-25 06:59N 71°07' E 025°51'0 0.0
2018-Jul-25 06:29N 71°07' E 025°51'0 0.0
2018-Jul-25 05:56N 71°07' E 025°51'0 0.1
2018-Jul-25 05:29N 71°07' E 025°51'1 2.3
2018-Jul-25 05:00N 71°08' E 025°53'4 7.5
2018-Jul-25 04:29N 71°08' E 026°05'612.3
2018-Jul-25 04:00N 71°03' E 026°15'510.8
2018-Jul-25 03:30N 70°58' E 026°16'4 8.3
2018-Jul-25 03:00N 71°01' E 026°25'510.0
2018-Jul-25 02:30N 71°06' E 026°19'714.4
2018-Jul-25 01:59N 71°12' E 026°07'816.5
2018-Jul-25 01:29N 71°19' E 025°53'816.6
2018-Jul-25 00:59N 71°26' E 025°38'816.3
2018-Jul-25 00:30N 71°33' E 025°25'  

Dump ship's entire track history